Terminal Aerodrome Forecast
Issued by NWS

Home | Current Version | Previous Version | Text Only | Print | Product List | Glossary On
Versions: 1 2 3 4 5 6 7 8 9 10 11 12 13 14 15 16
000
FTUS43 KILX 191800 AAA
TAFCMI
TAF AMD
KCMI 191832Z 1919/2018 15011G18KT P6SM SKC
     FM200000 18006KT P6SM SCT250
     FM201400 22012KT P6SM SCT120 BKN250=

USA.gov is the U.S. government's official web portal to all federal, state and local government web resources and services.